Time;durP1;ratioP1;P1;durP2;ratioP2;P2;SDS_P1;SDS_P2;PMS_P1;PMS_P2;Temp;Humidity;BMP_temperature;BMP_pressure;BME280_temperature;BME280_humidity;BME280_pressure;Samples;Min_cycle;Max_cycle;Signal;HPM_P1;HPM_P2
2021/11/29 00:00:20;;;;;;;1.40;0.60;;;;;;;-1.29;100.00;99220.97;5072855;28;20041;-82
2021/11/29 00:02:56;;;;;;;0.60;0.43;;;;;;;-1.19;100.00;99237.16;5064886;28;20049;-82
2021/11/29 00:05:31;;;;;;;0.55;0.43;;;;;;;-1.22;100.00;99240.31;5069884;28;20052;-82
2021/11/29 00:08:00;;;;;;;0.30;0.30;;;;;;;-1.20;100.00;99239.03;5071476;28;20059;-81
2021/11/29 00:10:34;;;;;;;0.40;0.40;;;;;;;-1.19;100.00;99245.19;5066103;28;20052;-82
2021/11/29 00:13:08;;;;;;;0.98;0.60;;;;;;;-1.23;100.00;99244.84;5066106;28;20489;-82
2021/11/29 00:15:36;;;;;;;1.08;0.60;;;;;;;-1.28;100.00;99247.41;5066257;28;20053;-82
2021/11/29 00:18:04;;;;;;;1.05;0.60;;;;;;;-1.20;100.00;99251.59;5067045;28;20699;-82
2021/11/29 00:20:42;;;;;;;0.98;0.50;;;;;;;-1.17;100.00;99253.78;5066232;28;20071;-81
2021/11/29 00:23:11;;;;;;;1.17;0.60;;;;;;;-1.28;100.00;99250.09;5066294;28;20064;-82
2021/11/29 00:25:40;;;;;;;0.30;0.30;;;;;;;-1.22;100.00;99259.00;5069871;28;20388;-82
2021/11/29 00:28:09;;;;;;;0.57;0.40;;;;;;;-1.31;100.00;99253.25;5062273;28;20048;-81
2021/11/29 00:30:43;;;;;;;1.02;0.43;;;;;;;-1.33;100.00;99251.84;5066652;28;20045;-82
2021/11/29 00:33:17;;;;;;;0.35;0.32;;;;;;;-1.23;100.00;99268.06;5068250;28;20531;-82
2021/11/29 00:35:46;;;;;;;0.50;0.32;;;;;;;-1.33;100.00;99273.19;5066420;28;20053;-81
2021/11/29 00:38:20;;;;;;;0.47;0.32;;;;;;;-1.27;100.00;99270.41;5061122;28;20374;-81
2021/11/29 00:40:48;;;;;;;0.32;0.30;;;;;;;-1.33;100.00;99273.19;5064635;28;20052;-81
2021/11/29 00:43:22;;;;;;;0.30;0.30;;;;;;;-1.23;100.00;99268.06;5068729;28;20480;-82
2021/11/29 00:45:55;;;;;;;0.30;0.30;;;;;;;-1.33;100.00;99279.34;5064564;28;20056;-82
2021/11/29 00:48:24;;;;;;;0.20;0.20;;;;;;;-1.33;100.00;99282.00;5067709;28;20052;-81
2021/11/29 00:50:53;;;;;;;0.25;0.20;;;;;;;-1.49;100.00;99275.56;5061137;28;20053;-82
2021/11/29 00:53:27;;;;;;;0.20;0.20;;;;;;;-1.32;100.00;99286.31;5066661;28;20048;-81
2021/11/29 00:56:00;;;;;;;0.30;0.30;;;;;;;-1.34;100.00;99283.06;5064604;28;20052;-80
2021/11/29 00:58:33;;;;;;;0.20;0.20;;;;;;;-1.28;100.00;99282.13;5065461;28;20048;-81
2021/11/29 01:01:02;;;;;;;0.30;0.30;;;;;;;-1.35;100.00;99267.28;5063293;28;20040;-82
2021/11/29 01:03:30;;;;;;;0.13;0.13;;;;;;;-1.24;100.00;99272.59;5062848;28;20130;-82
2021/11/29 01:06:05;;;;;;;0.20;0.20;;;;;;;-1.30;100.00;99278.06;5065151;28;20043;-82
2021/11/29 01:08:38;;;;;;;0.20;0.20;;;;;;;-1.27;100.00;99275.75;5067690;28;20395;-82
2021/11/29 01:11:11;;;;;;;0.20;0.20;;;;;;;-1.34;100.00;99275.06;5067202;28;20051;-81
2021/11/29 01:13:45;;;;;;;0.20;0.20;;;;;;;-1.34;100.00;99277.75;5068142;28;20397;-81
2021/11/29 01:16:18;;;;;;;0.22;0.22;;;;;;;-1.32;100.00;99275.63;5065755;28;20056;-82
2021/11/29 01:18:51;;;;;;;0.25;0.25;;;;;;;-1.27;100.00;99286.41;5064508;28;20048;-81
2021/11/29 01:21:26;;;;;;;0.22;0.22;;;;;;;-1.37;100.00;99279.03;5066708;28;20040;-81
2021/11/29 01:23:59;;;;;;;0.20;0.20;;;;;;;-1.33;100.00;99279.34;5065271;28;20049;-81
2021/11/29 01:26:27;;;;;;;0.20;0.20;;;;;;;-1.30;100.00;99289.53;5067538;28;20055;-82
2021/11/29 01:29:00;;;;;;;0.30;0.30;;;;;;;-1.31;100.00;99292.44;5065775;28;20051;-81
2021/11/29 01:31:29;;;;;;;0.40;0.32;;;;;;;-1.32;100.00;99294.31;5070067;28;20484;-82
2021/11/29 01:34:02;;;;;;;0.30;0.30;;;;;;;-1.38;100.00;99306.75;5065010;28;20056;-82
2021/11/29 01:36:37;;;;;;;0.30;0.30;;;;;;;-1.53;100.00;99285.09;5069018;28;20044;-82
2021/11/29 01:39:11;;;;;;;0.30;0.30;;;;;;;-1.34;100.00;99303.59;5063240;28;20051;-84
2021/11/29 01:41:47;;;;;;;0.40;0.40;;;;;;;-1.45;100.00;99319.41;5058847;28;20045;-84
2021/11/29 01:44:15;;;;;;;0.30;0.30;;;;;;;-1.42;100.00;99304.78;5068188;28;20044;-83
2021/11/29 01:46:44;;;;;;;0.20;0.20;;;;;;;-1.37;100.00;99312.88;5063660;28;20048;-83
2021/11/29 01:49:17;;;;;;;0.65;0.30;;;;;;;-1.36;100.00;99314.50;5058300;28;20053;-83
2021/11/29 01:51:47;;;;;;;0.63;0.50;;;;;;;-1.39;100.00;99301.66;5063583;28;20041;-82
2021/11/29 01:54:20;;;;;;;0.55;0.40;;;;;;;-1.36;100.00;99309.19;5063300;28;20045;-83
2021/11/29 01:56:53;;;;;;;0.30;0.30;;;;;;;-1.31;100.00;99327.16;5061674;28;20051;-83
2021/11/29 01:59:27;;;;;;;0.60;0.47;;;;;;;-1.42;100.00;99326.94;5063118;28;20048;-82
2021/11/29 02:02:01;;;;;;;0.32;0.32;;;;;;;-1.45;100.00;99327.41;5063854;28;20036;-83
2021/11/29 02:04:34;;;;;;;0.30;0.30;;;;;;;-1.33;100.00;99338.06;5062888;28;20040;-83
2021/11/29 02:07:04;;;;;;;0.47;0.40;;;;;;;-1.41;100.00;99323.22;5060432;28;20059;-83
2021/11/29 02:09:38;;;;;;;0.77;0.57;;;;;;;-1.34;100.00;99332.97;5060738;28;20071;-83
2021/11/29 02:12:07;;;;;;;0.35;0.30;;;;;;;-1.25;100.00;99336.91;5063589;28;20070;-82
2021/11/29 02:14:40;;;;;;;0.85;0.50;;;;;;;-1.22;100.00;99333.75;5060410;28;20048;-83
2021/11/29 02:17:14;;;;;;;0.75;0.50;;;;;;;-1.22;100.00;99331.09;5065049;28;20063;-82
2021/11/29 02:19:45;;;;;;;0.75;0.50;;;;;;;-1.24;100.00;99330.53;5071475;28;20056;-82
2021/11/29 02:22:20;;;;;;;0.38;0.38;;;;;;;-1.23;100.00;99316.94;5064055;28;20040;-83
2021/11/29 02:24:48;;;;;;;0.25;0.25;;;;;;;-1.22;100.00;99336.41;5066052;28;20048;-82
2021/11/29 02:27:21;;;;;;;0.63;0.40;;;;;;;-1.25;100.00;99335.03;5063549;28;20076;-82
2021/11/29 02:29:57;;;;;;;0.43;0.40;;;;;;;-1.26;100.00;99314.72;5063939;28;20052;-82
2021/11/29 02:32:30;;;;;;;0.40;0.30;;;;;;;-1.20;100.00;99329.00;5064047;28;20056;-82
2021/11/29 02:34:58;;;;;;;0.32;0.30;;;;;;;-1.24;100.00;99336.66;5068006;28;20060;-82
2021/11/29 02:37:33;;;;;;;0.65;0.50;;;;;;;-1.32;100.00;99338.88;5060788;28;20859;-83
2021/11/29 02:40:01;;;;;;;0.30;0.30;;;;;;;-1.44;100.00;99341.56;5073573;28;20052;-82
2021/11/29 02:42:30;;;;;;;0.20;0.20;;;;;;;-1.35;100.00;99342.84;5068145;28;20044;-82
2021/11/29 02:45:04;;;;;;;0.30;0.30;;;;;;;-1.42;100.00;99332.28;5066813;28;20661;-82
2021/11/29 02:47:32;;;;;;;0.30;0.30;;;;;;;-1.30;100.00;99342.91;5066394;28;20057;-82
2021/11/29 02:50:06;;;;;;;0.20;0.20;;;;;;;-1.25;100.00;99342.22;5070169;28;20037;-82
2021/11/29 02:52:41;;;;;;;0.20;0.20;;;;;;;-1.27;100.00;99337.13;5064302;28;20062;-82
2021/11/29 02:55:15;;;;;;;0.10;0.10;;;;;;;-1.14;100.00;99341.41;5063691;28;20041;-82
2021/11/29 02:57:48;;;;;;;0.20;0.20;;;;;;;-1.13;100.00;99339.53;5065633;28;20040;-81
2021/11/29 03:00:21;;;;;;;0.20;0.20;;;;;;;-1.17;100.00;99346.38;5069138;28;20131;-82
2021/11/29 03:03:06;;;;;;;0.20;0.20;;;;;;;-1.24;100.00;99327.84;5068872;28;20476;-83
2021/11/29 03:05:39;;;;;;;0.20;0.20;;;;;;;-1.12;100.00;99339.31;5068070;28;20389;-82
2021/11/29 03:08:14;;;;;;;0.10;0.10;;;;;;;-1.07;100.00;99335.94;5066197;28;20053;-83
2021/11/29 03:10:47;;;;;;;0.20;0.20;;;;;;;-1.04;100.00;99349.63;5068302;28;20052;-82
2021/11/29 03:13:20;;;;;;;0.20;0.20;;;;;;;-1.03;100.00;99343.22;5068721;28;20048;-82
2021/11/29 03:15:53;;;;;;;0.20;0.20;;;;;;;-1.18;100.00;99344.78;5065832;28;20056;-82
2021/11/29 03:18:30;;;;;;;0.20;0.20;;;;;;;-1.21;100.00;99352.19;5062639;28;20053;-82
2021/11/29 03:21:04;;;;;;;0.20;0.20;;;;;;;-1.25;100.00;99359.06;5068998;28;20486;-82
2021/11/29 03:23:39;;;;;;;0.20;0.20;;;;;;;-1.16;100.00;99354.19;5064096;28;20044;-82
2021/11/29 03:26:08;;;;;;;0.10;0.10;;;;;;;-1.19;100.00;99354.63;5067010;28;20544;-83
2021/11/29 03:28:43;;;;;;;0.20;0.20;;;;;;;-1.03;100.00;99351.22;5062426;28;20052;-82
2021/11/29 03:31:17;;;;;;;0.15;0.15;;;;;;;-0.99;100.00;99346.25;5069940;28;20051;-82
2021/11/29 03:33:55;;;;;;;0.20;0.20;;;;;;;-1.06;100.00;99342.91;5068533;28;20056;-82
2021/11/29 03:36:31;;;;;;;0.20;0.20;;;;;;;-1.10;100.00;99355.09;5066056;28;20043;-82
2021/11/29 03:39:10;;;;;;;0.20;0.20;;;;;;;-1.06;100.00;99357.06;5067017;28;20052;-82
2021/11/29 03:41:45;;;;;;;0.20;0.20;;;;;;;-1.06;100.00;99365.06;5067932;28;20044;-82
2021/11/29 03:44:18;;;;;;;0.20;0.20;;;;;;;-1.08;100.00;99363.66;5064109;28;20425;-82
2021/11/29 03:46:54;;;;;;;0.30;0.30;;;;;;;-0.98;100.00;99368.41;5066995;28;20067;-82
2021/11/29 03:49:28;;;;;;;0.10;0.10;;;;;;;-1.12;100.00;99367.84;5066800;28;20055;-82
2021/11/29 03:52:01;;;;;;;0.20;0.20;;;;;;;-1.05;100.00;99374.69;5066698;28;21016;-82
2021/11/29 03:54:35;;;;;;;0.20;0.20;;;;;;;-1.08;100.00;99363.66;5060309;28;20045;-81
2021/11/29 03:57:04;;;;;;;0.20;0.20;;;;;;;-1.03;100.00;99379.81;5067376;28;20056;-83
2021/11/29 03:59:37;;;;;;;0.20;0.20;;;;;;;-1.09;100.00;99378.06;5068460;28;20056;-82
2021/11/29 04:02:11;;;;;;;0.20;0.20;;;;;;;-1.10;100.00;99379.13;5062476;28;20063;-83
2021/11/29 04:04:44;;;;;;;0.20;0.20;;;;;;;-1.04;100.00;99379.00;5063464;28;20052;-82
2021/11/29 04:07:18;;;;;;;0.10;0.10;;;;;;;-1.11;100.00;99370.28;5058067;28;20518;-82
2021/11/29 04:09:48;;;;;;;0.20;0.20;;;;;;;-1.05;100.00;99380.03;5064884;28;20036;-82
2021/11/29 04:12:16;;;;;;;0.10;0.10;;;;;;;-1.13;100.00;99380.41;5070071;28;20045;-82
2021/11/29 04:14:50;;;;;;;0.10;0.10;;;;;;;-1.19;100.00;99378.66;5065090;28;20056;-82
2021/11/29 04:17:23;;;;;;;0.20;0.20;;;;;;;-1.16;100.00;99382.72;5065253;28;20064;-82
2021/11/29 04:19:51;;;;;;;0.20;0.20;;;;;;;-1.07;100.00;99386.66;5080137;28;20044;-82
2021/11/29 04:22:26;;;;;;;0.10;0.10;;;;;;;-0.97;100.00;99397.53;5060414;28;20476;-82
2021/11/29 04:25:02;;;;;;;0.20;0.20;;;;;;;-0.97;100.00;99394.88;5062825;28;20045;-82
2021/11/29 04:27:36;;;;;;;0.20;0.20;;;;;;;-1.01;100.00;99388.38;5069563;28;20070;-83
2021/11/29 04:30:10;;;;;;;0.20;0.20;;;;;;;-0.99;100.00;99399.66;5062409;28;20048;-82
2021/11/29 04:32:45;;;;;;;0.15;0.15;;;;;;;-1.06;100.00;99404.31;5068921;28;20048;-83
2021/11/29 04:35:13;;;;;;;0.20;0.20;;;;;;;-1.08;100.00;99409.88;5058209;28;20060;-82
2021/11/29 04:37:47;;;;;;;0.10;0.10;;;;;;;-1.11;100.00;99391.66;5065752;28;20040;-82
2021/11/29 04:40:17;;;;;;;0.30;0.30;;;;;;;-0.94;100.00;99406.94;5066690;28;20036;-82
2021/11/29 04:42:45;;;;;;;0.30;0.30;;;;;;;-0.98;100.00;99406.63;5055751;28;20041;-83
2021/11/29 04:45:13;;;;;;;0.10;0.10;;;;;;;-0.94;100.00;99423.81;5067181;28;20040;-82
2021/11/29 04:47:42;;;;;;;0.17;0.17;;;;;;;-1.03;100.00;99427.88;5060784;28;20051;-82
2021/11/29 04:50:15;;;;;;;0.20;0.20;;;;;;;-1.05;100.00;99424.59;5066660;28;20055;-82
2021/11/29 04:52:48;;;;;;;0.20;0.20;;;;;;;-0.98;100.00;99424.47;5064459;28;20519;-82
2021/11/29 04:55:23;;;;;;;0.20;0.20;;;;;;;-1.01;100.00;99431.09;5060326;28;20049;-83
2021/11/29 04:57:51;;;;;;;0.10;0.10;;;;;;;-1.03;100.00;99431.34;5067895;28;20055;-83
2021/11/29 05:00:21;;;;;;;0.20;0.20;;;;;;;-1.10;100.00;99419.97;5058116;28;20045;-82
2021/11/29 05:02:54;;;;;;;0.20;0.20;;;;;;;-0.95;100.00;99435.53;5063072;28;20048;-82
2021/11/29 05:05:27;;;;;;;0.20;0.20;;;;;;;-0.94;100.00;99426.47;5064014;28;20051;-82
2021/11/29 05:08:01;;;;;;;0.20;0.20;;;;;;;-0.88;100.00;99436.19;5063623;28;20060;-82
2021/11/29 05:10:33;;;;;;;0.20;0.20;;;;;;;-0.96;100.00;99439.22;5071273;28;20056;-82
2021/11/29 05:13:01;;;;;;;0.20;0.20;;;;;;;-0.93;100.00;99435.28;5061595;28;20532;-83
2021/11/29 05:15:34;;;;;;;0.20;0.20;;;;;;;-0.96;100.00;99433.09;5064730;28;20041;-82
2021/11/29 05:18:03;;;;;;;0.20;0.20;;;;;;;-0.88;100.00;99440.75;5065978;28;20041;-82
2021/11/29 05:20:33;;;;;;;0.20;0.20;;;;;;;-0.87;100.00;99429.00;5061753;28;20060;-83
2021/11/29 05:23:06;;;;;;;0.22;0.22;;;;;;;-0.83;100.00;99442.69;5066296;28;20075;-83
2021/11/29 05:25:41;;;;;;;0.20;0.20;;;;;;;-0.81;100.00;99452.09;5066325;28;20066;-83
2021/11/29 05:28:14;;;;;;;0.20;0.20;;;;;;;-0.84;100.00;99444.56;5064876;28;20048;-82
2021/11/29 05:30:43;;;;;;;0.20;0.20;;;;;;;-0.82;100.00;99457.69;5068391;28;20044;-82
2021/11/29 05:33:11;;;;;;;0.20;0.20;;;;;;;-0.82;100.00;99460.34;5059352;28;20048;-82
2021/11/29 05:35:44;;;;;;;0.20;0.20;;;;;;;-0.81;100.00;99448.63;5063182;28;20045;-82
2021/11/29 05:38:18;;;;;;;0.20;0.20;;;;;;;-0.76;100.00;99462.06;5064490;28;20048;-82
2021/11/29 05:40:52;;;;;;;0.20;0.20;;;;;;;-0.78;100.00;99462.31;5059800;28;20056;-82
2021/11/29 05:43:26;;;;;;;0.20;0.20;;;;;;;-0.77;100.00;99474.63;5067067;28;20488;-83
2021/11/29 05:45:54;;;;;;;0.20;0.20;;;;;;;-0.78;100.00;99478.34;5067302;28;20064;-82
2021/11/29 05:48:29;;;;;;;0.20;0.20;;;;;;;-0.78;100.00;99480.22;5063380;28;20048;-83
2021/11/29 05:51:02;;;;;;;0.20;0.20;;;;;;;-0.86;100.00;99474.19;5061702;28;20082;-82
2021/11/29 05:53:30;;;;;;;0.20;0.20;;;;;;;-0.79;100.00;99479.38;5064542;28;20040;-83
2021/11/29 05:56:06;;;;;;;0.20;0.20;;;;;;;-0.72;100.00;99489.94;5061767;28;20535;-83
2021/11/29 05:58:40;;;;;;;0.20;0.20;;;;;;;-0.74;100.00;99481.38;5063181;28;20372;-81
2021/11/29 06:01:08;;;;;;;0.20;0.20;;;;;;;-0.74;100.00;99486.72;5060084;28;20604;-82
2021/11/29 06:03:37;;;;;;;0.20;0.20;;;;;;;-0.70;100.00;99494.00;5063885;28;20038;-82
2021/11/29 06:06:10;;;;;;;0.20;0.20;;;;;;;-0.71;100.00;99499.59;5064289;28;20037;-82
2021/11/29 06:08:43;;;;;;;0.15;0.15;;;;;;;-0.74;100.00;99502.75;5061811;28;20804;-82
2021/11/29 06:11:18;;;;;;;0.30;0.30;;;;;;;-0.70;100.00;99510.03;5062979;28;20036;-83
2021/11/29 06:13:52;;;;;;;0.20;0.20;;;;;;;-0.76;100.00;99516.34;5063298;28;20068;-82
2021/11/29 06:16:25;;;;;;;0.30;0.30;;;;;;;-0.83;100.00;99520.97;5067906;28;20041;-82
2021/11/29 06:18:59;;;;;;;0.20;0.20;;;;;;;-0.90;100.00;99522.94;5063483;28;20041;-82
2021/11/29 06:21:32;;;;;;;0.30;0.30;;;;;;;-0.93;100.00;99521.56;5064130;28;20052;-82
2021/11/29 06:24:05;;;;;;;0.20;0.20;;;;;;;-0.81;100.00;99536.78;5063538;28;20055;-82
2021/11/29 06:26:40;;;;;;;0.20;0.20;;;;;;;-0.85;100.00;99525.75;5063683;28;20506;-82
2021/11/29 06:29:13;;;;;;;0.20;0.20;;;;;;;-0.72;100.00;99543.38;5079605;28;20047;-82
2021/11/29 06:31:42;;;;;;;0.20;0.20;;;;;;;-0.79;100.00;99550.72;5065761;28;20059;-81
2021/11/29 06:34:10;;;;;;;0.20;0.20;;;;;;;-0.79;100.00;99540.81;5064104;28;20056;-82
2021/11/29 06:36:44;;;;;;;0.20;0.20;;;;;;;-0.69;100.00;99556.28;5063405;28;20053;-83
2021/11/29 06:39:19;;;;;;;0.20;0.20;;;;;;;-0.81;100.00;99558.94;5063509;28;20057;-82
2021/11/29 06:41:53;;;;;;;0.20;0.20;;;;;;;-0.78;100.00;99565.69;5065615;28;20562;-82
2021/11/29 06:44:26;;;;;;;0.20;0.20;;;;;;;-0.80;100.00;99568.59;5060412;28;20055;-83
2021/11/29 06:47:00;;;;;;;0.13;0.13;;;;;;;-0.83;100.00;99563.69;5065616;28;20052;-82
2021/11/29 06:49:33;;;;;;;0.20;0.20;;;;;;;-0.77;100.00;99560.13;5063886;28;20055;-82
2021/11/29 06:52:07;;;;;;;0.22;0.22;;;;;;;-0.78;100.00;99561.16;5065940;28;20578;-82
2021/11/29 06:54:40;;;;;;;0.20;0.20;;;;;;;-0.76;100.00;99563.59;5064746;28;21676;-82
2021/11/29 06:57:16;;;;;;;0.20;0.20;;;;;;;-0.77;100.00;99584.16;5065953;28;20053;-82
2021/11/29 06:59:46;;;;;;;0.20;0.20;;;;;;;-0.72;100.00;99581.63;5069126;28;20052;-81
2021/11/29 07:02:22;;;;;;;0.20;0.20;;;;;;;-0.75;100.00;99589.28;5060266;28;20501;-82
2021/11/29 07:04:56;;;;;;;0.20;0.20;;;;;;;-0.80;100.00;99595.31;5062158;28;20048;-82
2021/11/29 07:07:29;;;;;;;0.20;0.20;;;;;;;-0.82;100.00;99585.91;5061108;28;20052;-82
2021/11/29 07:10:04;;;;;;;0.20;0.20;;;;;;;-0.84;100.00;99598.66;5056895;28;20057;-82
2021/11/29 07:12:34;;;;;;;0.22;0.22;;;;;;;-0.80;100.00;99599.81;5066683;28;20060;-82
2021/11/29 07:15:09;;;;;;;0.20;0.20;;;;;;;-0.87;100.00;99607.94;5065496;28;20060;-83
2021/11/29 07:17:37;;;;;;;0.20;0.20;;;;;;;-0.78;100.00;99617.25;5064704;28;20048;-83
2021/11/29 07:20:07;;;;;;;0.20;0.20;;;;;;;-0.76;100.00;99617.03;5064884;28;20067;-82
2021/11/29 07:22:40;;;;;;;0.20;0.20;;;;;;;-0.86;100.00;99605.06;5068691;28;20059;-82
2021/11/29 07:25:09;;;;;;;0.20;0.20;;;;;;;-0.66;100.00;99611.94;5068421;28;20051;-81
2021/11/29 07:27:39;;;;;;;0.30;0.30;;;;;;;-0.75;100.00;99622.13;5066819;28;20075;-83
2021/11/29 07:30:15;;;;;;;0.20;0.20;;;;;;;-0.72;100.00;99610.16;5063633;28;20044;-82
2021/11/29 07:32:53;;;;;;;0.20;0.20;;;;;;;-0.71;100.00;99606.47;5069469;28;20056;-83
2021/11/29 07:35:28;;;;;;;0.20;0.20;;;;;;;-0.65;100.00;99626.91;5069877;28;20056;-82
2021/11/29 07:38:01;;;;;;;0.20;0.20;;;;;;;-0.60;100.00;99618.22;5070056;28;20049;-82
2021/11/29 07:40:35;;;;;;;0.25;0.25;;;;;;;-0.61;100.00;99630.72;5066634;28;20048;-81
2021/11/29 07:43:11;;;;;;;0.20;0.20;;;;;;;-0.61;100.00;99633.41;5066909;28;20040;-83
2021/11/29 07:45:40;;;;;;;0.20;0.20;;;;;;;-0.62;100.00;99649.66;5066776;28;20048;-81
2021/11/29 07:48:08;;;;;;;0.20;0.20;;;;;;;-0.61;100.00;99643.28;5064362;28;20048;-81
2021/11/29 07:50:37;;;;;;;0.20;0.20;;;;;;;-0.64;100.00;99652.56;5067963;28;20056;-82
2021/11/29 07:53:11;;;;;;;0.25;0.25;;;;;;;-0.63;100.00;99662.22;5064996;28;20052;-82
2021/11/29 07:55:44;;;;;;;0.20;0.20;;;;;;;-0.59;100.00;99660.72;5067179;28;20033;-82
2021/11/29 07:58:20;;;;;;;0.20;0.20;;;;;;;-0.60;100.00;99677.78;5072047;28;20048;-82
2021/11/29 08:00:54;;;;;;;0.20;0.20;;;;;;;-0.59;100.00;99666.06;5069936;28;20052;-83
2021/11/29 08:03:23;;;;;;;0.20;0.20;;;;;;;-0.55;100.00;99683.28;5067642;28;20040;-83
2021/11/29 08:05:51;;;;;;;0.20;0.20;;;;;;;-0.58;100.00;99685.59;5065676;28;20037;-82
2021/11/29 08:08:24;;;;;;;0.20;0.20;;;;;;;-0.63;100.00;99677.47;5076421;28;20045;-82
2021/11/29 08:10:52;;;;;;;0.20;0.20;;;;;;;-0.58;100.00;99678.41;5067560;28;20048;-81
2021/11/29 08:13:27;;;;;;;0.10;0.10;;;;;;;-0.51;100.00;99680.97;5070031;28;20040;-82
2021/11/29 08:16:00;;;;;;;0.17;0.17;;;;;;;-0.49;100.00;99681.53;5068951;28;20397;-83
2021/11/29 08:18:34;;;;;;;0.17;0.17;;;;;;;-0.52;100.00;99690.81;5067899;28;20040;-84
2021/11/29 08:21:02;;;;;;;0.20;0.20;;;;;;;-0.50;100.00;99689.78;5070638;28;20045;-84
2021/11/29 08:23:30;;;;;;;0.15;0.15;;;;;;;-0.51;100.00;99686.31;5068895;28;20504;-84
2021/11/29 08:26:04;;;;;;;0.20;0.20;;;;;;;-0.44;100.00;99689.69;5064841;28;20055;-83
2021/11/29 08:28:38;;;;;;;0.20;0.20;;;;;;;-0.41;100.00;99693.75;5070382;28;20056;-85
2021/11/29 08:31:11;;;;;;;0.20;0.20;;;;;;;-0.39;100.00;99702.34;5067259;28;20489;-82
2021/11/29 08:33:45;;;;;;;0.10;0.10;;;;;;;-0.34;100.00;99705.13;5056045;28;20504;-82
2021/11/29 08:36:18;;;;;;;0.20;0.20;;;;;;;-0.33;100.00;99701.44;5061976;28;20049;-81
2021/11/29 08:38:46;;;;;;;0.20;0.20;;;;;;;-0.24;100.00;99702.69;5051838;28;20052;-83
2021/11/29 08:41:21;;;;;;;0.20;0.20;;;;;;;-0.24;100.00;99707.22;5054272;28;20475;-82
2021/11/29 08:43:56;;;;;;;0.20;0.20;;;;;;;-0.26;100.00;99711.97;5055044;28;20052;-82
2021/11/29 08:46:29;;;;;;;0.20;0.20;;;;;;;-0.30;100.00;99705.47;5058575;28;20526;-85
2021/11/29 08:49:03;;;;;;;0.20;0.20;;;;;;;-0.21;100.00;99704.09;5054425;28;20057;-84
2021/11/29 08:51:37;;;;;;;0.20;0.20;;;;;;;-0.18;100.00;99708.97;5055726;28;20045;-82
2021/11/29 08:54:10;;;;;;;0.17;0.17;;;;;;;-0.25;100.00;99702.94;5054328;28;20063;-83
2021/11/29 08:56:46;;;;;;;0.25;0.25;;;;;;;-0.20;100.00;99697.69;5052736;28;20056;-83
2021/11/29 08:59:16;;;;;;;0.20;0.20;;;;;;;-0.17;100.00;99707.94;5053719;28;21322;-82
2021/11/29 09:01:51;;;;;;;0.20;0.20;;;;;;;-0.03;100.00;99720.03;5053710;28;20060;-83
2021/11/29 09:04:25;;;;;;;0.20;0.20;;;;;;;-0.11;100.00;99728.41;5057618;28;20056;-83
2021/11/29 09:06:58;;;;;;;0.20;0.20;;;;;;;-0.21;100.00;99725.47;5058210;28;20056;-82
2021/11/29 09:09:32;;;;;;;0.20;0.20;;;;;;;-0.02;100.00;99731.53;5052750;28;20040;-84
2021/11/29 09:12:06;;;;;;;0.20;0.20;;;;;;;0.02;100.00;99731.91;5053845;28;20060;-82
2021/11/29 09:14:36;;;;;;;0.20;0.20;;;;;;;0.13;100.00;99736.41;5054277;28;20067;-85
2021/11/29 09:17:09;;;;;;;0.20;0.20;;;;;;;0.09;100.00;99743.28;5054535;28;20052;-83
2021/11/29 09:19:38;;;;;;;0.20;0.20;;;;;;;0.07;100.00;99748.88;5058445;28;20052;-82
2021/11/29 09:22:11;;;;;;;0.20;0.20;;;;;;;-0.06;100.00;99741.06;5060846;28;20067;-83
2021/11/29 09:24:40;;;;;;;0.20;0.20;;;;;;;0.11;100.00;99749.19;5058270;28;20056;-83
2021/11/29 09:27:16;;;;;;;0.20;0.20;;;;;;;0.03;100.00;99745.03;5056141;28;20044;-83
2021/11/29 09:29:50;;;;;;;0.20;0.20;;;;;;;0.13;100.00;99739.91;5057940;28;20049;-83
2021/11/29 09:32:24;;;;;;;0.20;0.20;;;;;;;0.29;100.00;99766.97;5055119;28;20048;-81
2021/11/29 09:34:57;;;;;;;0.20;0.20;;;;;;;0.31;100.00;99759.56;5053852;28;20463;-85
2021/11/29 09:37:30;;;;;;;0.20;0.20;;;;;;;0.28;100.00;99760.03;5052268;28;20748;-84
2021/11/29 09:39:59;;;;;;;0.20;0.20;;;;;;;0.29;100.00;99778.53;5056350;28;20048;-83
2021/11/29 09:42:29;;;;;;;0.20;0.20;;;;;;;0.37;100.00;99773.84;5055006;28;20059;-83
2021/11/29 09:45:05;;;;;;;0.28;0.28;;;;;;;0.40;100.00;99779.56;5057986;28;20044;-84
2021/11/29 09:47:34;;;;;;;0.20;0.20;;;;;;;0.25;100.00;99787.22;5056514;28;20049;-83
2021/11/29 09:50:09;;;;;;;0.20;0.20;;;;;;;0.43;100.00;99783.59;5051571;28;20241;-81
2021/11/29 09:52:43;;;;;;;0.20;0.20;;;;;;;0.41;100.00;99777.69;5049558;28;20485;-83
2021/11/29 09:55:19;;;;;;;0.20;0.20;;;;;;;0.47;100.00;99782.09;5051795;28;20060;-84
2021/11/29 09:57:53;;;;;;;0.20;0.20;;;;;;;0.42;100.00;99776.66;5049772;28;21649;-83
2021/11/29 10:00:31;;;;;;;0.20;0.20;;;;;;;0.54;100.00;99779.28;5053983;28;20076;-84
2021/11/29 10:03:05;;;;;;;0.20;0.20;;;;;;;0.62;100.00;99790.47;5059417;28;20060;-82
2021/11/29 10:05:38;;;;;;;0.20;0.20;;;;;;;0.55;100.00;99776.38;5055606;28;20040;-82
2021/11/29 10:08:24;;;;;;;0.10;0.10;;;;;;;0.66;100.00;99793.47;5051307;28;20056;-82
2021/11/29 10:10:59;;;;;;;0.25;0.25;;;;;;;0.59;100.00;99785.56;5056780;28;20049;-82
2021/11/29 10:13:47;;;;;;;0.20;0.20;;;;;;;0.69;100.00;99790.31;5056728;28;20048;-82
2021/11/29 10:16:33;;;;;;;0.20;0.20;;;;;;;0.60;100.00;99781.03;5056472;28;20404;-84
2021/11/29 10:19:10;;;;;;;0.15;0.15;;;;;;;0.65;100.00;99790.00;5052563;28;20544;-83
2021/11/29 10:21:43;;;;;;;0.20;0.20;;;;;;;0.63;100.00;99788.59;5055327;28;20053;-83
2021/11/29 10:24:19;;;;;;;0.20;0.20;;;;;;;0.70;100.00;99791.94;5056568;28;20044;-82
2021/11/29 10:26:55;;;;;;;0.20;0.20;;;;;;;0.77;100.00;99787.25;5052321;28;20058;-81
2021/11/29 10:29:26;;;;;;;0.20;0.20;;;;;;;0.74;100.00;99785.06;5055738;28;20607;-83
2021/11/29 10:32:01;;;;;;;0.20;0.20;;;;;;;0.84;100.00;99798.69;5052281;28;20055;-82
2021/11/29 10:34:32;;;;;;;0.20;0.20;;;;;;;0.83;100.00;99794.38;5050062;28;20053;-81
2021/11/29 10:37:12;;;;;;;0.20;0.20;;;;;;;0.89;100.00;99781.09;5052386;28;20056;-82
2021/11/29 10:39:47;;;;;;;0.20;0.20;;;;;;;0.99;100.00;99789.31;5052824;28;20760;-82
2021/11/29 10:42:25;;;;;;;0.20;0.20;;;;;;;0.94;100.00;99773.13;5054423;28;20067;-81
2021/11/29 10:44:58;;;;;;;0.20;0.20;;;;;;;0.93;100.00;99795.63;5050620;28;20078;-82
2021/11/29 10:47:32;;;;;;;0.10;0.10;;;;;;;1.03;100.00;99793.13;5052570;28;20945;-83
2021/11/29 10:50:07;;;;;;;0.28;0.28;;;;;;;1.12;100.00;99805.13;5050720;28;20041;-82
2021/11/29 10:52:35;;;;;;;0.25;0.25;;;;;;;1.14;100.00;99788.78;5050972;28;20044;-81
2021/11/29 10:55:04;;;;;;;0.20;0.20;;;;;;;1.22;100.00;99804.50;5055300;28;20511;-84
2021/11/29 10:57:46;;;;;;;0.20;0.20;;;;;;;1.20;100.00;99806.59;5051934;28;20456;-82
2021/11/29 11:00:17;;;;;;;0.30;0.30;;;;;;;1.27;100.00;99807.28;5056089;28;20531;-82
2021/11/29 11:03:03;;;;;;;0.30;0.30;;;;;;;1.24;100.00;99810.41;5054504;28;20059;-82
2021/11/29 11:06:01;;;;;;;0.20;0.20;;;;;;;1.27;100.00;99817.16;5057654;28;20049;-83
2021/11/29 11:08:36;;;;;;;0.20;0.20;;;;;;;1.33;100.00;99810.88;5056694;28;20052;-81
2021/11/29 11:11:31;;;;;;;0.10;0.10;;;;;;;1.40;100.00;99808.03;5053718;28;20052;-81
2021/11/29 11:14:07;;;;;;;0.20;0.20;;;;;;;1.50;100.00;99814.38;5054495;28;20063;-83
2021/11/29 11:16:49;;;;;;;0.20;0.20;;;;;;;1.67;100.00;99817.09;5055997;28;20044;-81
2021/11/29 11:19:26;;;;;;;0.30;0.30;;;;;;;1.73;100.00;99807.28;5056807;28;20752;-82
2021/11/29 11:22:11;;;;;;;0.22;0.22;;;;;;;1.65;100.00;99810.34;5056934;28;20531;-82
2021/11/29 11:24:46;;;;;;;0.20;0.20;;;;;;;1.63;100.00;99815.13;5053787;28;20056;-82
2021/11/29 11:27:15;;;;;;;0.20;0.20;;;;;;;1.65;100.00;99808.47;5057423;28;20075;-82
2021/11/29 11:29:50;;;;;;;0.20;0.20;;;;;;;1.70;100.00;99821.97;5062183;28;20397;-82
2021/11/29 11:32:27;;;;;;;0.20;0.20;;;;;;;1.85;100.00;99825.97;5056045;28;20581;-81
2021/11/29 11:34:58;;;;;;;0.20;0.20;;;;;;;1.81;100.00;99822.97;5056373;28;20052;-82
2021/11/29 11:37:35;;;;;;;0.20;0.20;;;;;;;1.85;100.00;99818.75;5053728;28;20997;-81
2021/11/29 11:40:11;;;;;;;0.30;0.30;;;;;;;2.03;100.00;99806.94;5054071;28;20059;-81
2021/11/29 11:42:41;;;;;;;0.20;0.20;;;;;;;1.92;100.00;99815.06;5052611;28;20056;-85
2021/11/29 11:45:17;;;;;;;0.20;0.20;;;;;;;1.95;100.00;99815.41;5069757;28;20052;-82
2021/11/29 11:47:51;;;;;;;0.20;0.20;;;;;;;1.94;100.00;99811.09;5059176;28;20056;-83
2021/11/29 11:50:27;;;;;;;0.20;0.20;;;;;;;2.00;100.00;99825.41;5056157;28;20049;-83
2021/11/29 11:53:03;;;;;;;0.20;0.20;;;;;;;2.04;100.00;99818.50;5058189;28;20155;-81